Time;durP1;ratioP1;P1;durP2;ratioP2;P2;SDS_P1;SDS_P2;PMS_P1;PMS_P2;Temp;Humidity;BMP_temperature;BMP_pressure;BME280_temperature;BME280_humidity;BME280_pressure;Samples;Min_cycle;Max_cycle;Signal;HPM_P1;HPM_P2
2022/09/21 00:01:06;;;;;;;1.48;0.98;;;8.20;99.90;;;;;;5052438;28;20119;-66
2022/09/21 00:03:32;;;;;;;3.28;1.77;;;8.20;99.90;;;;;;5051368;28;20483;-65
2022/09/21 00:06:05;;;;;;;5.57;2.17;;;8.20;99.90;;;;;;5052770;28;20033;-66
2022/09/21 00:08:31;;;;;;;4.38;2.08;;;8.20;99.90;;;;;;5054076;28;20045;-66
2022/09/21 00:10:57;;;;;;;4.30;2.00;;;8.30;99.90;;;;;;5056804;28;20052;-66
2022/09/21 00:13:25;;;;;;;4.35;2.47;;;8.20;99.90;;;;;;5055489;28;20045;-65
2022/09/21 00:15:51;;;;;;;4.28;2.08;;;8.30;99.90;;;;;;5056680;28;20111;-66
2022/09/21 00:18:17;;;;;;;4.63;2.58;;;8.20;99.90;;;;;;5056655;28;20438;-65
2022/09/21 00:20:43;;;;;;;5.20;2.10;;;8.10;99.90;;;;;;5056682;28;20041;-66
2022/09/21 00:23:08;;;;;;;7.47;2.92;;;8.20;99.90;;;;;;5056498;28;20376;-65
2022/09/21 00:25:34;;;;;;;3.08;2.33;;;8.00;99.90;;;;;;5055467;28;20049;-66
2022/09/21 00:28:00;;;;;;;1.67;1.58;;;8.10;99.90;;;;;;5055448;28;20139;-66
2022/09/21 00:30:27;;;;;;;1.92;1.75;;;7.90;99.90;;;;;;5056621;28;20128;-66
2022/09/21 00:32:53;;;;;;;4.63;1.75;;;7.80;99.90;;;;;;5054912;28;20067;-65
2022/09/21 00:35:19;;;;;;;1.73;1.38;;;7.60;99.90;;;;;;5055238;28;20368;-65
2022/09/21 00:37:45;;;;;;;1.20;1.02;;;7.50;99.90;;;;;;5056179;28;20048;-66
2022/09/21 00:40:11;;;;;;;1.35;1.20;;;7.60;99.90;;;;;;5055123;28;20056;-66
2022/09/21 00:42:37;;;;;;;1.80;1.40;;;7.60;99.90;;;;;;5055173;28;20049;-66
2022/09/21 00:45:04;;;;;;;2.58;1.75;;;7.50;99.90;;;;;;5067229;28;20089;-66
2022/09/21 00:47:37;;;;;;;1.60;1.50;;;7.50;99.90;;;;;;5056213;28;20037;-66
2022/09/21 00:50:14;;;;;;;3.53;2.58;;;7.70;99.90;;;;;;5054776;28;20079;-65
2022/09/21 00:52:43;;;;;;;3.92;2.75;;;7.60;99.90;;;;;;5054957;28;20045;-66
2022/09/21 00:55:30;;;;;;;6.32;2.17;;;7.60;99.90;;;;;;5054002;28;20033;-65
2022/09/21 00:58:08;;;;;;;2.95;2.30;;;7.50;99.90;;;;;;5056000;28;20064;-65
2022/09/21 01:00:35;;;;;;;5.07;2.30;;;7.50;99.90;;;;;;5055584;28;20515;-66
2022/09/21 01:03:01;;;;;;;4.30;1.58;;;7.40;99.90;;;;;;5053267;28;20049;-65
2022/09/21 01:05:28;;;;;;;2.53;1.88;;;7.30;99.90;;;;;;5053386;28;20041;-65
2022/09/21 01:07:56;;;;;;;1.83;1.67;;;7.30;99.90;;;;;;5054465;28;20044;-65
2022/09/21 01:10:23;;;;;;;3.33;2.00;;;7.30;99.90;;;;;;5053336;28;20502;-64
2022/09/21 01:13:04;;;;;;;3.42;2.00;;;7.20;99.90;;;;;;5053909;28;20430;-65
2022/09/21 01:15:51;;;;;;;3.90;2.65;;;7.40;99.90;;;;;;5053153;28;20044;-65
2022/09/21 01:18:34;;;;;;;7.13;2.65;;;7.50;99.90;;;;;;5052964;28;20041;-65
2022/09/21 01:21:20;;;;;;;3.03;2.20;;;7.40;99.90;;;;;;5054255;28;20056;-65
2022/09/21 01:24:14;;;;;;;3.45;1.77;;;7.30;99.90;;;;;;5053070;28;20419;-65
2022/09/21 01:27:16;;;;;;;4.95;2.47;;;7.50;99.90;;;;;;5054357;28;20115;-65
2022/09/21 01:29:59;;;;;;;6.18;3.03;;;7.50;99.90;;;;;;5053188;28;20045;-65
2022/09/21 01:32:37;;;;;;;3.85;2.60;;;7.30;99.90;;;;;;5052866;28;20037;-65
2022/09/21 01:35:14;;;;;;;4.28;2.58;;;7.20;99.90;;;;;;5054650;28;20048;-65
2022/09/21 01:37:50;;;;;;;2.08;1.60;;;7.20;99.90;;;;;;5054310;28;20047;-65
2022/09/21 01:40:27;;;;;;;5.07;1.90;;;7.00;99.90;;;;;;5052753;28;20045;-65
2022/09/21 01:42:55;;;;;;;2.00;1.80;;;7.00;99.90;;;;;;5052708;28;20056;-65
2022/09/21 01:45:30;;;;;;;4.75;2.28;;;7.20;99.90;;;;;;5065392;28;20148;-65
2022/09/21 01:47:58;;;;;;;2.05;1.85;;;7.10;99.90;;;;;;5053942;28;20041;-65
2022/09/21 01:50:26;;;;;;;5.88;2.40;;;7.10;99.90;;;;;;5052261;28;20053;-65
2022/09/21 01:52:57;;;;;;;2.80;2.05;;;7.20;99.90;;;;;;5053975;28;20041;-65
2022/09/21 01:55:48;;;;;;;5.78;2.30;;;7.20;99.90;;;;;;5052765;28;20399;-65
2022/09/21 01:58:37;;;;;;;3.85;2.40;;;7.20;99.90;;;;;;5053914;28;20041;-65
2022/09/21 02:01:05;;;;;;;4.28;2.20;;;7.20;99.90;;;;;;5017854;28;1033540;-65
2022/09/21 02:03:48;;;;;;;6.70;2.75;;;7.10;99.90;;;;;;5054632;28;20048;-65
2022/09/21 02:06:15;;;;;;;2.70;2.30;;;7.00;99.90;;;;;;5053629;28;20364;-65
2022/09/21 02:08:41;;;;;;;5.05;2.88;;;7.00;99.90;;;;;;5053468;28;20049;-65
2022/09/21 02:11:07;;;;;;;4.35;2.58;;;7.10;99.90;;;;;;5053107;28;20364;-65
2022/09/21 02:13:38;;;;;;;1.80;1.70;;;7.10;99.90;;;;;;5054563;28;20539;-65
2022/09/21 02:16:07;;;;;;;5.63;2.33;;;7.10;99.90;;;;;;5052970;28;20087;-65
2022/09/21 02:18:56;;;;;;;4.35;2.55;;;7.00;99.90;;;;;;5053470;28;20399;-65
2022/09/21 02:21:32;;;;;;;4.97;2.70;;;7.10;99.90;;;;;;5053356;28;20056;-65
2022/09/21 02:24:27;;;;;;;5.88;1.80;;;7.00;99.90;;;;;;5053268;28;20131;-65
2022/09/21 02:27:16;;;;;;;4.25;2.03;;;7.00;99.90;;;;;;5018276;28;20491;-66
2022/09/21 02:30:22;;;;;;;2.70;1.90;;;6.90;99.90;;;;;;5050533;28;20049;-65
2022/09/21 02:33:00;;;;;;;5.03;2.50;;;7.10;99.90;;;;;;5052692;28;20040;-65
2022/09/21 02:35:37;;;;;;;3.05;1.92;;;7.00;99.90;;;;;;5053251;28;20044;-65
2022/09/21 02:38:25;;;;;;;4.15;2.70;;;6.90;99.90;;;;;;5054164;28;20037;-65
2022/09/21 02:41:14;;;;;;;4.45;2.30;;;7.10;99.90;;;;;;5052881;28;20051;-65
2022/09/21 02:43:44;;;;;;;3.58;2.30;;;7.10;99.90;;;;;;5053737;28;20044;-65
2022/09/21 02:46:18;;;;;;;2.92;2.20;;;7.00;99.90;;;;;;5060912;28;20570;-65
2022/09/21 02:48:48;;;;;;;2.75;2.03;;;6.90;99.90;;;;;;5052548;28;20128;-65
2022/09/21 02:51:33;;;;;;;1.80;1.65;;;7.00;99.90;;;;;;5053626;28;20372;-65
2022/09/21 02:54:03;;;;;;;3.47;1.80;;;6.90;99.90;;;;;;5052761;28;20045;-65
2022/09/21 02:56:30;;;;;;;3.88;2.47;;;;;;;;;;5053849;28;20051;-65
2022/09/21 02:58:58;;;;;;;4.57;2.80;;;;;;;;;;5052764;28;20137;-65
2022/09/21 03:01:25;;;;;;;5.53;2.05;;;6.80;99.90;;;;;;5053628;28;20061;-65
2022/09/21 03:03:51;;;;;;;4.15;2.20;;;6.80;99.90;;;;;;5052011;28;20045;-65
2022/09/21 03:06:17;;;;;;;4.20;2.03;;;6.60;99.90;;;;;;5052282;28;20040;-65
2022/09/21 03:08:42;;;;;;;3.92;1.83;;;6.50;99.90;;;;;;5053839;28;20083;-65
2022/09/21 03:11:10;;;;;;;2.00;1.65;;;6.30;99.90;;;;;;5053134;28;20087;-65
2022/09/21 03:13:35;;;;;;;1.52;1.38;;;6.40;99.90;;;;;;5053249;28;20077;-65
2022/09/21 03:16:03;;;;;;;2.60;1.40;;;6.20;99.90;;;;;;5053161;28;20088;-65
2022/09/21 03:18:30;;;;;;;3.92;1.52;;;6.00;99.90;;;;;;5052335;28;20045;-65
2022/09/21 03:20:56;;;;;;;3.58;1.35;;;6.10;99.90;;;;;;5051960;28;20141;-65
2022/09/21 03:23:21;;;;;;;4.55;1.30;;;6.00;99.90;;;;;;5052171;28;20128;-65
2022/09/21 03:25:47;;;;;;;2.03;1.30;;;6.10;99.90;;;;;;5053746;28;20048;-65
2022/09/21 03:28:14;;;;;;;1.90;1.40;;;6.10;99.90;;;;;;5051644;28;20056;-65
2022/09/21 03:30:41;;;;;;;4.15;1.75;;;6.10;99.90;;;;;;5052012;28;20055;-65
2022/09/21 03:33:07;;;;;;;2.60;1.80;;;6.00;99.90;;;;;;5053036;28;20036;-65
2022/09/21 03:35:33;;;;;;;5.03;1.75;;;6.10;99.90;;;;;;5053301;28;20037;-65
2022/09/21 03:38:00;;;;;;;3.55;1.92;;;6.20;99.90;;;;;;5053179;28;20036;-65
2022/09/21 03:40:26;;;;;;;2.75;1.40;;;6.10;99.90;;;;;;5051710;28;20206;-65
2022/09/21 03:42:52;;;;;;;1.38;1.23;;;6.20;99.90;;;;;;5053075;28;20402;-65
2022/09/21 03:45:20;;;;;;;6.95;1.50;;;6.20;99.90;;;;;;5060654;28;20048;-65
2022/09/21 03:47:47;;;;;;;3.45;1.23;;;6.20;99.90;;;;;;5053101;28;20091;-65
2022/09/21 03:50:12;;;;;;;1.73;1.63;;;6.40;99.90;;;;;;5051665;28;20036;-65
2022/09/21 03:52:38;;;;;;;2.90;2.05;;;6.20;99.90;;;;;;5052986;28;20442;-65
2022/09/21 03:55:05;;;;;;;3.10;1.42;;;6.20;99.90;;;;;;5052717;28;20108;-65
2022/09/21 03:57:33;;;;;;;2.63;1.63;;;;;;;;;;5053197;28;20037;-65
2022/09/21 03:59:58;;;;;;;4.05;1.70;;;6.10;99.90;;;;;;5053152;28;20417;-65
2022/09/21 04:02:24;;;;;;;3.25;1.80;;;6.10;99.90;;;;;;5051252;28;20056;-65
2022/09/21 04:04:50;;;;;;;2.00;1.52;;;6.00;99.90;;;;;;5052695;28;20037;-65
2022/09/21 04:07:15;;;;;;;4.53;1.63;;;5.80;99.90;;;;;;5052603;28;20040;-65
2022/09/21 04:09:41;;;;;;;1.30;1.20;;;6.00;99.90;;;;;;5051902;28;20033;-65
2022/09/21 04:12:07;;;;;;;1.70;1.40;;;6.00;99.90;;;;;;5051719;28;20049;-65
2022/09/21 04:14:33;;;;;;;1.98;1.65;;;5.70;99.90;;;;;;5052385;28;20038;-65
2022/09/21 04:16:58;;;;;;;1.70;1.40;;;6.00;99.90;;;;;;5053051;28;20033;-65
2022/09/21 04:19:24;;;;;;;1.88;1.27;;;5.70;99.90;;;;;;5052884;28;20036;-65
2022/09/21 04:21:54;;;;;;;6.40;2.10;;;5.70;99.90;;;;;;5051217;28;20044;-65
2022/09/21 04:24:20;;;;;;;5.95;1.77;;;5.70;99.90;;;;;;5052506;28;20040;-65
2022/09/21 04:26:46;;;;;;;5.05;1.98;;;;;;;;;;5051005;28;20123;-65
2022/09/21 04:29:13;;;;;;;3.78;1.88;;;6.00;99.90;;;;;;5051729;28;20124;-65
2022/09/21 04:31:38;;;;;;;4.13;2.20;;;5.80;99.90;;;;;;5051515;28;20037;-65
2022/09/21 04:34:04;;;;;;;4.97;2.13;;;5.90;99.90;;;;;;5052832;28;20493;-65
2022/09/21 04:36:31;;;;;;;5.40;1.85;;;5.90;99.90;;;;;;5052460;28;20479;-65
2022/09/21 04:38:59;;;;;;;5.18;1.90;;;5.80;99.90;;;;;;5052397;28;20037;-65
2022/09/21 04:41:25;;;;;;;2.28;1.75;;;5.80;99.90;;;;;;5050976;28;20049;-65
2022/09/21 04:43:50;;;;;;;2.72;1.60;;;5.80;99.90;;;;;;5055081;28;20036;-65
2022/09/21 04:46:18;;;;;;;3.10;1.83;;;5.60;99.90;;;;;;5058680;28;20419;-65
2022/09/21 04:48:44;;;;;;;4.97;2.40;;;5.80;99.90;;;;;;5052324;28;20045;-65
2022/09/21 04:51:11;;;;;;;3.15;1.75;;;5.80;99.90;;;;;;5052446;28;20045;-65
2022/09/21 04:53:38;;;;;;;3.20;1.85;;;5.80;99.90;;;;;;5052017;28;20039;-65
2022/09/21 04:56:06;;;;;;;5.30;1.50;;;5.70;99.90;;;;;;5055001;28;20496;-65
2022/09/21 04:58:32;;;;;;;2.33;1.80;;;5.80;99.90;;;;;;5056034;28;20044;-65
2022/09/21 05:00:58;;;;;;;4.10;1.20;;;5.80;99.90;;;;;;5054574;28;20057;-66
2022/09/21 05:03:24;;;;;;;1.92;1.58;;;5.80;99.90;;;;;;5054320;28;20048;-65
2022/09/21 05:05:52;;;;;;;1.85;1.60;;;5.60;99.90;;;;;;5054576;28;20056;-65
2022/09/21 05:11:03;;;;;;;3.55;2.03;;;5.80;99.90;;;;;;5055741;28;20067;-65
2022/09/21 05:13:28;;;;;;;3.08;2.00;;;5.60;99.90;;;;;;5054559;28;20041;-65
2022/09/21 05:15:54;;;;;;;3.28;1.85;;;5.80;99.90;;;;;;5055727;28;20033;-65
2022/09/21 05:18:19;;;;;;;3.42;1.77;;;5.60;99.90;;;;;;5055706;28;20402;-65
2022/09/21 05:20:52;;;;;;;2.17;1.80;;;5.50;99.90;;;;;;5054143;28;20131;-65
2022/09/21 05:23:17;;;;;;;2.92;1.42;;;5.30;99.90;;;;;;5055713;28;20033;-65
2022/09/21 05:25:43;;;;;;;3.15;1.38;;;5.30;99.90;;;;;;5055560;28;20479;-65
2022/09/21 05:28:08;;;;;;;1.40;1.30;;;5.40;99.90;;;;;;5054281;28;20544;-65
2022/09/21 05:30:34;;;;;;;2.50;1.77;;;5.40;99.90;;;;;;5054363;28;20472;-65
2022/09/21 05:33:03;;;;;;;5.00;1.80;;;5.40;99.90;;;;;;5055405;28;20079;-65
2022/09/21 05:35:37;;;;;;;2.97;1.60;;;5.70;99.90;;;;;;5054911;28;20033;-65
2022/09/21 05:38:15;;;;;;;6.95;1.80;;;5.60;99.90;;;;;;5055303;28;20048;-65
2022/09/21 05:40:41;;;;;;;1.75;1.52;;;5.50;99.90;;;;;;5055206;28;20127;-65
2022/09/21 05:43:09;;;;;;;6.47;1.63;;;5.60;99.90;;;;;;5053963;28;20095;-65
2022/09/21 05:45:38;;;;;;;2.13;1.45;;;5.60;99.90;;;;;;5062794;28;20060;-65
2022/09/21 05:48:10;;;;;;;1.88;1.67;;;5.60;99.90;;;;;;5054791;28;20045;-65
2022/09/21 05:51:24;;;;;;;4.22;1.73;;;5.90;99.90;;;;;;5053785;28;20084;-65
2022/09/21 05:54:00;;;;;;;2.55;1.45;;;6.10;99.90;;;;;;5054921;28;20112;-65
2022/09/21 05:56:31;;;;;;;3.85;1.70;;;6.20;99.90;;;;;;5053727;28;20074;-65
2022/09/21 05:58:58;;;;;;;2.88;1.73;;;6.20;99.90;;;;;;5055022;28;20086;-65
2022/09/21 06:01:45;;;;;;;2.05;1.70;;;6.40;99.90;;;;;;5053317;28;20064;-65
2022/09/21 06:04:12;;;;;;;2.50;1.63;;;6.40;99.90;;;;;;5053120;28;20119;-65
2022/09/21 06:06:37;;;;;;;3.58;1.75;;;6.30;99.90;;;;;;5052972;28;20087;-65
2022/09/21 06:09:03;;;;;;;4.93;1.80;;;6.40;99.90;;;;;;5053599;28;20069;-65
2022/09/21 06:11:29;;;;;;;3.15;1.77;;;6.40;99.90;;;;;;5054368;28;20033;-65
2022/09/21 06:13:55;;;;;;;5.35;1.85;;;6.40;99.90;;;;;;5053497;28;20468;-65
2022/09/21 06:16:21;;;;;;;5.47;1.60;;;6.40;99.90;;;;;;5033867;28;20037;-65
2022/09/21 06:18:46;;;;;;;2.03;1.60;;;6.40;99.90;;;;;;5052817;28;20091;-65
2022/09/21 06:21:12;;;;;;;2.25;1.50;;;6.50;99.90;;;;;;5052594;28;20562;-65
2022/09/21 06:23:38;;;;;;;3.47;1.40;;;6.60;99.90;;;;;;5053562;28;20132;-65
2022/09/21 06:26:03;;;;;;;3.33;1.63;;;6.70;99.90;;;;;;5052104;28;20060;-65
2022/09/21 06:28:29;;;;;;;7.35;1.95;;;6.70;99.90;;;;;;5035196;28;20107;-65
2022/09/21 06:30:56;;;;;;;9.57;1.85;;;6.90;99.90;;;;;;5045135;28;20033;-64
2022/09/21 06:33:23;;;;;;;2.00;1.52;;;6.90;99.90;;;;;;5054008;28;20487;-64
2022/09/21 06:35:52;;;;;;;3.88;1.90;;;7.10;99.90;;;;;;5054041;28;20088;-64
2022/09/21 06:38:18;;;;;;;5.40;2.28;;;6.90;99.90;;;;;;5053657;28;20040;-64
2022/09/21 06:40:43;;;;;;;5.57;1.98;;;7.00;99.90;;;;;;5053771;28;20040;-64
2022/09/21 06:43:09;;;;;;;3.83;1.95;;;7.00;99.90;;;;;;5052682;28;20090;-64
2022/09/21 06:45:34;;;;;;;2.45;1.75;;;7.10;99.90;;;;;;5057856;28;20403;-64
2022/09/21 06:48:00;;;;;;;1.92;1.40;;;7.00;99.90;;;;;;5053672;28;20463;-64
2022/09/21 06:50:26;;;;;;;3.35;1.48;;;7.00;99.90;;;;;;5054078;28;20033;-64
2022/09/21 06:52:51;;;;;;;4.35;1.50;;;7.20;99.90;;;;;;5053598;28;20064;-64
2022/09/21 06:55:17;;;;;;;6.63;2.83;;;7.30;99.90;;;;;;5051944;28;20032;-64
2022/09/21 06:57:43;;;;;;;3.90;2.63;;;7.40;99.90;;;;;;5034858;28;20056;-64
2022/09/21 07:00:11;;;;;;;7.82;2.20;;;7.50;99.90;;;;;;5035206;28;20419;-64
2022/09/21 07:02:37;;;;;;;2.63;2.30;;;7.60;99.90;;;;;;5039162;28;20076;-65
2022/09/21 07:05:03;;;;;;;4.72;2.70;;;7.70;99.90;;;;;;5052267;28;20129;-65
2022/09/21 07:07:30;;;;;;;4.90;2.60;;;7.90;99.90;;;;;;5052315;28;20158;-65
2022/09/21 07:09:58;;;;;;;5.72;2.42;;;7.80;99.90;;;;;;5048087;28;20503;-63
2022/09/21 07:12:25;;;;;;;5.38;2.88;;;8.00;99.90;;;;;;5053775;28;20168;-64
2022/09/21 07:14:51;;;;;;;4.32;2.70;;;8.30;99.90;;;;;;5043296;28;20041;-64
2022/09/21 07:17:16;;;;;;;3.78;2.30;;;8.60;99.90;;;;;;5052859;28;20033;-64
2022/09/21 07:19:42;;;;;;;4.10;2.60;;;8.70;99.90;;;;;;5053007;28;20123;-63
2022/09/21 07:22:08;;;;;;;3.17;2.40;;;;;;;;;;5051881;28;20090;-63
2022/09/21 07:24:33;;;;;;;5.63;2.80;;;9.00;99.90;;;;;;5050055;28;20412;-63
2022/09/21 07:26:59;;;;;;;4.45;2.55;;;9.20;99.90;;;;;;5048612;28;20128;-66
2022/09/21 07:29:24;;;;;;;5.07;2.67;;;9.90;99.90;;;;;;5047903;28;20120;-66
2022/09/21 07:31:50;;;;;;;6.88;3.17;;;;;;;;;;5050421;28;20116;-66
2022/09/21 07:34:16;;;;;;;6.15;3.53;;;;;;;;;;5051675;28;20090;-66
2022/09/21 07:36:42;;;;;;;4.90;3.30;;;10.90;99.90;;;;;;5051216;28;20478;-66
2022/09/21 07:39:08;;;;;;;5.82;2.80;;;11.10;99.90;;;;;;5046614;28;20032;-65
2022/09/21 07:41:34;;;;;;;5.05;3.30;;;11.10;99.90;;;;;;5048570;28;20052;-65
2022/09/21 07:44:00;;;;;;;6.25;2.67;;;;;;;;;;5051063;28;20045;-66
2022/09/21 07:46:26;;;;;;;4.00;2.40;;;;;;;;;;5053117;28;20052;-65
2022/09/21 07:48:53;;;;;;;4.68;2.00;;;11.30;99.90;;;;;;5051413;28;20049;-65
2022/09/21 07:51:19;;;;;;;2.97;1.60;;;11.20;99.90;;;;;;5051416;28;20487;-65
2022/09/21 07:53:44;;;;;;;4.80;1.45;;;11.10;99.90;;;;;;5052322;28;20116;-66
2022/09/21 07:56:15;;;;;;;6.97;1.70;;;11.20;99.90;;;;;;5052399;28;20037;-65
2022/09/21 08:01:27;;;;;;;5.28;1.63;;;11.40;99.90;;;;;;5052179;28;20415;-66
2022/09/21 08:03:54;;;;;;;3.50;2.53;;;11.20;99.90;;;;;;5052458;28;20064;-66
2022/09/21 08:06:22;;;;;;;8.52;1.92;;;11.40;99.90;;;;;;5052745;28;20414;-66
2022/09/21 08:08:48;;;;;;;4.60;1.25;;;11.50;99.90;;;;;;5051636;28;20045;-66
2022/09/21 08:11:18;;;;;;;7.05;1.42;;;11.90;99.90;;;;;;5051389;28;20135;-66
2022/09/21 08:13:44;;;;;;;6.75;2.80;;;11.70;99.90;;;;;;5051254;28;20121;-66
2022/09/21 08:16:10;;;;;;;6.78;2.05;;;11.80;99.90;;;;;;5052837;28;20061;-66
2022/09/21 08:18:38;;;;;;;6.45;2.10;;;12.00;99.90;;;;;;5051184;28;20091;-66
2022/09/21 08:21:04;;;;;;;6.30;1.98;;;12.10;99.90;;;;;;5052458;28;20509;-66
2022/09/21 08:23:30;;;;;;;8.50;1.83;;;12.30;99.90;;;;;;5034562;28;20053;-66
2022/09/21 08:25:59;;;;;;;4.30;1.88;;;12.40;99.90;;;;;;5052011;28;20400;-66
2022/09/21 08:28:26;;;;;;;8.07;2.08;;;12.60;99.90;;;;;;5041352;28;20422;-66
2022/09/21 08:30:51;;;;;;;8.25;2.42;;;12.70;99.90;;;;;;5056404;28;20045;-66
2022/09/21 08:33:20;;;;;;;5.20;2.28;;;12.90;99.90;;;;;;5056320;28;20033;-66
2022/09/21 08:35:57;;;;;;;8.50;2.22;;;12.90;99.90;;;;;;5054979;28;20041;-67
2022/09/21 08:38:23;;;;;;;6.68;2.67;;;13.00;99.90;;;;;;5055058;28;20037;-67
2022/09/21 08:40:50;;;;;;;6.97;2.30;;;13.20;99.90;;;;;;5056305;28;20041;-67
2022/09/21 08:43:26;;;;;;;5.82;2.40;;;13.30;99.90;;;;;;5056021;28;20123;-66
2022/09/21 08:45:52;;;;;;;6.85;2.25;;;13.40;99.90;;;;;;5056276;28;20044;-67
2022/09/21 08:48:25;;;;;;;7.80;2.42;;;13.70;99.90;;;;;;5056058;28;20033;-67
2022/09/21 08:50:54;;;;;;;4.22;2.08;;;13.90;99.90;;;;;;5056128;28;20051;-67
2022/09/21 08:53:33;;;;;;;8.38;1.92;;;14.10;99.90;;;;;;5054234;28;20544;-68
2022/09/21 08:56:00;;;;;;;9.32;3.08;;;13.90;99.90;;;;;;5055968;28;20079;-68
2022/09/21 08:58:28;;;;;;;96.55;57.33;;;14.80;99.90;;;;;;5055038;28;20041;-68
2022/09/21 09:01:05;;;;;;;27.17;15.82;;;16.20;99.90;;;;;;5055682;28;20122;-66
2022/09/21 09:03:42;;;;;;;4.82;2.13;;;18.80;99.90;;;;;;5054349;28;20131;-66
2022/09/21 09:06:19;;;;;;;6.70;1.80;;;20.10;99.90;;;;;;5054370;28;20072;-66
2022/09/21 09:09:08;;;;;;;5.95;1.25;;;21.10;99.90;;;;;;5055933;28;20045;-66
2022/09/21 09:12:03;;;;;;;16.20;6.90;;;22.20;99.90;;;;;;5055858;28;20063;-66
2022/09/21 09:14:56;;;;;;;6.10;1.90;;;22.50;99.90;;;;;;5037268;28;20045;-66
2022/09/21 09:17:27;;;;;;;5.28;0.93;;;24.60;99.90;;;;;;5055751;28;20052;-66
2022/09/21 09:20:17;;;;;;;3.60;1.30;;;24.50;99.90;;;;;;5055746;28;20037;-66
2022/09/21 09:22:47;;;;;;;4.80;1.25;;;26.20;99.90;;;;;;5055861;28;20040;-66
2022/09/21 09:25:23;;;;;;;2.63;0.60;;;26.20;99.90;;;;;;5037631;28;20040;-66
2022/09/21 09:27:58;;;;;;;3.83;0.80;;;24.00;99.90;;;;;;5055280;28;20491;-66
2022/09/21 09:30:25;;;;;;;7.95;1.13;;;22.70;99.90;;;;;;5054252;28;20385;-66
2022/09/21 09:33:15;;;;;;;11.20;1.70;;;21.80;99.90;;;;;;5054078;28;20049;-66
2022/09/21 09:35:48;;;;;;;4.32;1.42;;;22.10;99.90;;;;;;5037482;28;20041;-66
2022/09/21 09:38:26;;;;;;;4.75;0.90;;;21.00;99.90;;;;;;5054173;28;20044;-67
2022/09/21 09:41:30;;;;;;;4.78;0.65;;;20.10;99.90;;;;;;5053858;28;20064;-66
2022/09/21 09:44:08;;;;;;;5.35;0.93;;;19.20;99.90;;;;;;5059862;28;20051;-66
2022/09/21 09:46:48;;;;;;;4.60;0.75;;;18.40;99.90;;;;;;5057642;28;20095;-65
2022/09/21 09:49:27;;;;;;;3.63;0.90;;;17.70;99.90;;;;;;5054323;28;20098;-66
2022/09/21 09:51:53;;;;;;;5.05;0.93;;;16.80;99.90;;;;;;5053637;28;20360;-65
2022/09/21 09:54:23;;;;;;;3.72;0.60;;;16.80;99.90;;;;;;5053097;28;20032;-65
2022/09/21 09:56:48;;;;;;;6.65;1.85;;;16.20;99.90;;;;;;5053407;28;20051;-65
2022/09/21 09:59:37;;;;;;;4.20;0.73;;;15.90;99.90;;;;;;5054772;28;20495;-64
2022/09/21 10:02:17;;;;;;;4.88;1.05;;;15.80;99.90;;;;;;5051322;28;20053;-64
2022/09/21 10:05:07;;;;;;;5.68;1.75;;;15.80;99.90;;;;;;5053082;28;20040;-64
2022/09/21 10:07:41;;;;;;;7.68;1.20;;;15.90;99.90;;;;;;5054012;28;20033;-64
2022/09/21 10:10:22;;;;;;;5.17;0.93;;;15.80;99.90;;;;;;5053979;28;20036;-61
2022/09/21 10:12:49;;;;;;;14.18;1.38;;;16.10;99.90;;;;;;5053176;28;20349;-67
2022/09/21 10:15:20;;;;;;;4.63;0.90;;;16.00;99.90;;;;;;5053156;28;20033;-65
2022/09/21 10:17:47;;;;;;;4.22;1.02;;;16.00;99.90;;;;;;5052375;28;20375;-64
2022/09/21 10:20:19;;;;;;;6.53;1.23;;;15.90;99.90;;;;;;5053057;28;20057;-64
2022/09/21 10:22:48;;;;;;;5.22;1.10;;;15.80;99.90;;;;;;5052997;28;20052;-64
2022/09/21 10:25:19;;;;;;;3.35;0.90;;;15.80;99.90;;;;;;5053178;28;20128;-64
2022/09/21 10:27:48;;;;;;;4.65;1.00;;;15.90;99.90;;;;;;5054384;28;20048;-64
2022/09/21 10:30:29;;;;;;;5.57;0.93;;;15.90;99.90;;;;;;5053823;28;20041;-64
2022/09/21 10:32:56;;;;;;;6.47;1.35;;;15.80;99.90;;;;;;5052484;28;20059;-64
2022/09/21 10:35:22;;;;;;;8.25;1.20;;;16.10;99.90;;;;;;5050919;28;20037;-64
2022/09/21 10:38:06;;;;;;;4.15;0.88;;;16.10;99.90;;;;;;5053508;28;20036;-64
2022/09/21 10:40:35;;;;;;;2.13;0.82;;;16.20;99.90;;;;;;5052075;28;20033;-64
2022/09/21 10:43:01;;;;;;;3.28;0.98;;;16.10;99.90;;;;;;5053611;28;20479;-64
2022/09/21 10:45:33;;;;;;;4.55;1.02;;;16.20;99.90;;;;;;5053267;28;20143;-64
2022/09/21 10:48:09;;;;;;;5.07;0.98;;;16.30;99.90;;;;;;5049071;28;20048;-64
2022/09/21 10:50:41;;;;;;;2.55;0.88;;;16.30;99.90;;;;;;5050642;28;20056;-64
2022/09/21 10:53:18;;;;;;;3.90;0.93;;;16.40;99.90;;;;;;5051472;28;20536;-64
2022/09/21 10:56:00;;;;;;;5.20;0.77;;;16.60;99.90;;;;;;5048622;28;20052;-65
2022/09/21 10:58:27;;;;;;;2.75;0.75;;;16.30;99.90;;;;;;5051311;28;20040;-65
2022/09/21 11:00:54;;;;;;;6.10;0.90;;;16.50;99.90;;;;;;5053049;28;20112;-66
2022/09/21 11:03:30;;;;;;;6.07;1.02;;;16.50;99.90;;;;;;5052805;28;20041;-65
2022/09/21 11:06:01;;;;;;;5.18;0.77;;;16.50;99.90;;;;;;5052859;28;20045;-65
2022/09/21 11:08:34;;;;;;;1.95;0.63;;;16.70;99.90;;;;;;5051571;28;20069;-65
2022/09/21 11:11:31;;;;;;;3.33;0.70;;;16.50;99.90;;;;;;5048886;28;20198;-65
2022/09/21 11:14:11;;;;;;;4.05;0.90;;;16.50;99.90;;;;;;5051786;28;20044;-65
2022/09/21 11:16:47;;;;;;;1.73;0.60;;;16.30;99.90;;;;;;5050669;28;20068;-65
2022/09/21 11:19:24;;;;;;;8.10;1.30;;;16.20;99.90;;;;;;5053019;28;20072;-65
2022/09/21 11:22:13;;;;;;;4.47;0.88;;;16.10;99.90;;;;;;5047992;28;20068;-65
2022/09/21 11:25:03;;;;;;;1.58;0.73;;;16.10;99.90;;;;;;5050397;28;20037;-65
2022/09/21 11:27:34;;;;;;;5.53;0.90;;;15.90;99.90;;;;;;5051159;28;20064;-65
2022/09/21 11:30:13;;;;;;;2.90;0.70;;;16.10;99.90;;;;;;5051952;28;20136;-65
2022/09/21 11:32:59;;;;;;;2.72;0.80;;;16.20;99.90;;;;;;5044440;28;20061;-65
2022/09/21 11:35:34;;;;;;;5.07;1.10;;;16.30;99.90;;;;;;5039461;28;20120;-65
2022/09/21 11:38:00;;;;;;;;;;;16.20;99.90;;;;;;5049168;28;20246;-65
2022/09/21 11:40:34;;;;;;;3.70;0.80;;;16.30;99.90;;;;;;5051050;28;19931;-64
2022/09/21 11:43:09;;;;;;;6.47;0.93;;;16.50;99.90;;;;;;5052184;28;20274;-64
2022/09/21 11:45:49;;;;;;;5.38;0.80;;;16.60;99.90;;;;;;5035566;28;20483;-64
2022/09/21 11:48:20;;;;;;;2.72;0.60;;;16.60;99.90;;;;;;5052602;28;20098;-64
2022/09/21 11:51:22;;;;;;;3.55;0.90;;;16.60;99.90;;;;;;5051679;28;20174;-64
2022/09/21 11:54:15;;;;;;;3.63;0.93;;;16.70;99.90;;;;;;5028754;28;20052;-64
2022/09/21 11:56:54;;;;;;;4.70;0.93;;;16.80;99.90;;;;;;5052038;28;20422;-64
2022/09/21 11:59:48;;;;;;;4.60;0.75;;;16.70;99.90;;;;;;5052291;28;20051;-64
2022/09/21 12:02:22;;;;;;;4.68;1.00;;;16.60;99.90;;;;;;5067501;28;20056;-64
2022/09/21 12:04:50;;;;;;;4.50;0.90;;;16.60;99.90;;;;;;5055799;28;20037;-64
2022/09/21 12:07:42;;;;;;;2.90;0.70;;;16.60;99.90;;;;;;5056772;28;20040;-64
2022/09/21 12:10:32;;;;;;;3.90;0.90;;;16.60;99.90;;;;;;5056896;28;20041;-64
2022/09/21 12:13:10;;;;;;;2.17;0.70;;;16.70;99.90;;;;;;5056929;28;20391;-64
2022/09/21 12:15:48;;;;;;;4.90;0.90;;;16.70;99.90;;;;;;5055597;28;20052;-64
2022/09/21 12:18:32;;;;;;;3.22;0.77;;;16.70;99.90;;;;;;5055416;28;20040;-65
2022/09/21 12:21:14;;;;;;;3.85;0.70;;;16.30;99.90;;;;;;5055623;28;20091;-64
2022/09/21 12:23:43;;;;;;;2.85;0.60;;;16.30;99.90;;;;;;5055511;28;20539;-64
2022/09/21 12:26:14;;;;;;;7.90;0.70;;;16.10;99.90;;;;;;5055610;28;20049;-64
2022/09/21 12:28:48;;;;;;;5.22;1.23;;;16.20;99.90;;;;;;5056591;28;20041;-64
2022/09/21 12:31:23;;;;;;;5.55;0.70;;;16.10;99.90;;;;;;5056333;28;20487;-65
2022/09/21 12:34:04;;;;;;;2.70;0.80;;;16.10;99.90;;;;;;5055176;28;20044;-65
2022/09/21 12:36:46;;;;;;;2.40;0.70;;;16.10;99.90;;;;;;5055117;28;20037;-64
2022/09/21 12:39:26;;;;;;;3.72;0.75;;;16.20;99.90;;;;;;5056395;28;20037;-64
2022/09/21 12:41:56;;;;;;;8.95;1.00;;;16.20;99.90;;;;;;5056545;28;20120;-64
2022/09/21 12:44:50;;;;;;;3.80;0.70;;;16.30;99.90;;;;;;5062425;28;20045;-64
2022/09/21 12:47:23;;;;;;;4.28;0.82;;;16.40;99.90;;;;;;5044488;28;20155;-64
2022/09/21 12:49:50;;;;;;;3.35;0.70;;;16.60;99.90;;;;;;5055059;28;20085;-64
2022/09/21 12:52:23;;;;;;;11.77;1.77;;;16.60;99.90;;;;;;5055093;28;20056;-64
2022/09/21 12:55:14;;;;;;;3.42;0.75;;;16.80;99.90;;;;;;5055790;28;20128;-64
2022/09/21 12:58:04;;;;;;;2.88;1.13;;;16.70;99.90;;;;;;5045054;28;20102;-64
2022/09/21 13:00:38;;;;;;;6.05;0.80;;;16.60;99.90;;;;;;5038227;28;20509;-64
2022/09/21 13:03:18;;;;;;;6.87;1.13;;;16.70;99.90;;;;;;5055021;28;20403;-64
2022/09/21 13:05:49;;;;;;;2.88;0.50;;;16.60;99.90;;;;;;5055490;28;20067;-64
2022/09/21 13:08:39;;;;;;;3.35;0.75;;;18.10;99.90;;;;;;5061748;28;20034;-64
2022/09/21 13:11:06;;;;;;;3.72;0.70;;;16.60;99.90;;;;;;5057451;28;20043;-64
2022/09/21 13:13:50;;;;;;;4.13;0.80;;;16.50;99.90;;;;;;5052399;28;20078;-64
2022/09/21 13:16:35;;;;;;;6.60;1.20;;;16.60;99.90;;;;;;5054788;28;20135;-64
2022/09/21 13:19:13;;;;;;;;;;;16.70;99.90;;;;;;5055722;28;20115;-64
2022/09/21 13:21:39;;;;;;;6.55;1.35;;;16.60;99.90;;;;;;5053087;28;20465;-64
2022/09/21 13:24:21;;;;;;;2.03;0.60;;;16.50;99.90;;;;;;5053396;28;20037;-64
2022/09/21 13:26:55;;;;;;;1.90;0.60;;;16.60;99.90;;;;;;5052643;28;20047;-64